Time;durP1;ratioP1;P1;durP2;ratioP2;P2;SDS_P1;SDS_P2;PMS_P1;PMS_P2;Temp;Humidity;BMP_temperature;BMP_pressure;BME280_temperature;BME280_humidity;BME280_pressure;Samples;Min_cycle;Max_cycle;Signal;HPM_P1;HPM_P2
2022/04/29 00:00:08;;;;;;;16.00;9.20;;;8.50;99.90;;;;;;5076169;28;20515;-80
2022/04/29 00:02:35;;;;;;;18.23;8.48;;;8.50;99.90;;;;;;5075797;28;20055;-79
2022/04/29 00:05:01;;;;;;;16.40;8.90;;;8.50;99.90;;;;;;5075220;28;20021;-80
2022/04/29 00:07:27;;;;;;;14.20;8.57;;;8.40;99.90;;;;;;5075697;28;20020;-80
2022/04/29 00:09:53;;;;;;;16.90;9.23;;;8.50;99.90;;;;;;5066560;28;20136;-80
2022/04/29 00:12:19;;;;;;;20.45;10.27;;;8.40;99.90;;;;;;5074685;28;20055;-79
2022/04/29 00:14:46;;;;;;;14.15;8.98;;;8.40;99.90;;;;;;5076112;28;20012;-79
2022/04/29 00:17:12;;;;;;;14.00;9.05;;;8.30;99.90;;;;;;5069225;28;20054;-80
2022/04/29 00:19:38;;;;;;;16.60;8.68;;;8.30;99.90;;;;;;5093806;22;20080;-73
2022/04/29 00:22:04;;;;;;;15.05;8.63;;;8.40;99.90;;;;;;5083214;28;20047;-73
2022/04/29 00:24:30;;;;;;;13.50;8.07;;;8.40;99.90;;;;;;5083568;28;20013;-73
2022/04/29 00:26:58;;;;;;;20.23;8.90;;;8.40;99.90;;;;;;5083990;28;20474;-73
2022/04/29 00:29:24;;;;;;;12.57;8.68;;;8.30;99.90;;;;;;5081613;28;20107;-73
2022/04/29 00:31:50;;;;;;;17.83;9.20;;;8.30;99.90;;;;;;5076209;28;20028;-73
2022/04/29 00:34:17;;;;;;;18.58;8.73;;;8.30;99.90;;;;;;5074321;28;20024;-73
2022/04/29 00:36:42;;;;;;;16.45;8.85;;;8.20;99.90;;;;;;5075585;28;20066;-73
2022/04/29 00:39:08;;;;;;;17.48;8.55;;;8.20;99.90;;;;;;5076192;28;20055;-73
2022/04/29 00:41:34;;;;;;;15.48;8.35;;;8.20;99.90;;;;;;5075618;28;20064;-73
2022/04/29 00:44:05;;;;;;;12.20;7.85;;;8.20;99.90;;;;;;5075551;28;20064;-72
2022/04/29 00:46:36;;;;;;;20.63;9.20;;;8.20;99.90;;;;;;5076166;28;20043;-73
2022/04/29 00:49:04;;;;;;;13.73;7.85;;;8.20;99.90;;;;;;5069011;28;20381;-73
2022/04/29 00:51:29;;;;;;;19.90;9.68;;;8.10;99.90;;;;;;5075281;28;20013;-73
2022/04/29 00:53:57;;;;;;;17.10;8.38;;;8.10;99.90;;;;;;5075618;28;20019;-73
2022/04/29 00:56:25;;;;;;;15.43;8.48;;;8.20;99.90;;;;;;5072175;28;20461;-73
2022/04/29 00:59:11;;;;;;;11.02;8.00;;;8.20;99.90;;;;;;5072543;28;20021;-72
2022/04/29 01:01:37;;;;;;;10.02;8.00;;;8.20;99.90;;;;;;5072249;28;20119;-73
2022/04/29 01:04:04;;;;;;;12.55;8.05;;;8.20;99.90;;;;;;5072475;28;20077;-73
2022/04/29 01:06:31;;;;;;;17.15;9.15;;;8.10;99.90;;;;;;5071035;28;20020;-73
2022/04/29 01:08:57;;;;;;;22.75;9.65;;;8.00;99.90;;;;;;5070496;28;20504;-73
2022/04/29 01:11:26;;;;;;;17.10;9.60;;;8.10;99.90;;;;;;5071800;28;20048;-73
2022/04/29 01:13:54;;;;;;;13.98;8.23;;;8.10;99.90;;;;;;5073079;28;20056;-73
2022/04/29 01:16:20;;;;;;;19.42;8.95;;;8.10;99.90;;;;;;5065622;28;20052;-73
2022/04/29 01:18:49;;;;;;;18.55;9.05;;;8.10;99.90;;;;;;5071147;28;20376;-73
2022/04/29 01:21:15;;;;;;;14.68;8.82;;;8.10;99.90;;;;;;5097223;22;20065;-79
2022/04/29 01:23:43;;;;;;;14.15;7.90;;;8.20;99.90;;;;;;5077343;28;20020;-79
2022/04/29 01:26:14;;;;;;;20.50;8.90;;;8.20;99.90;;;;;;5077463;28;20016;-79
2022/04/29 01:28:45;;;;;;;16.93;7.83;;;8.20;99.90;;;;;;5077718;28;20009;-80
2022/04/29 01:31:15;;;;;;;14.10;7.68;;;8.20;99.90;;;;;;5074677;28;20268;-79
2022/04/29 01:33:47;;;;;;;19.25;8.18;;;8.20;99.90;;;;;;5072354;28;20028;-79
2022/04/29 01:36:13;;;;;;;15.50;8.35;;;8.10;99.90;;;;;;5071710;28;20074;-79
2022/04/29 01:38:38;;;;;;;21.73;8.82;;;8.20;99.90;;;;;;5071815;28;20025;-79
2022/04/29 01:41:07;;;;;;;13.65;8.50;;;8.10;99.90;;;;;;5071808;28;20031;-79
2022/04/29 01:43:34;;;;;;;14.60;7.88;;;8.00;99.90;;;;;;5071412;28;20070;-79
2022/04/29 01:46:01;;;;;;;13.23;8.45;;;8.00;99.90;;;;;;5071272;28;20017;-79
2022/04/29 01:48:27;;;;;;;13.40;8.88;;;8.00;99.90;;;;;;5072329;28;20013;-79
2022/04/29 01:50:53;;;;;;;15.23;8.15;;;8.00;99.90;;;;;;5064944;28;20127;-79
2022/04/29 01:53:20;;;;;;;18.17;8.45;;;8.00;99.90;;;;;;5071667;28;20023;-79
2022/04/29 01:55:46;;;;;;;12.07;7.82;;;8.00;99.90;;;;;;5071802;28;20079;-79
2022/04/29 01:58:12;;;;;;;13.75;7.65;;;8.10;99.90;;;;;;5064664;28;20059;-79
2022/04/29 02:00:38;;;;;;;18.83;8.13;;;8.10;99.90;;;;;;5069874;28;20039;-79
2022/04/29 02:03:04;;;;;;;19.30;8.63;;;8.10;99.90;;;;;;5071416;28;20021;-79
2022/04/29 02:05:30;;;;;;;10.60;7.70;;;8.00;99.90;;;;;;5064514;28;20044;-79
2022/04/29 02:07:57;;;;;;;16.23;8.35;;;8.00;99.90;;;;;;5070073;28;20078;-79
2022/04/29 02:10:23;;;;;;;13.38;7.75;;;7.90;99.90;;;;;;5071239;28;20024;-79
2022/04/29 02:12:49;;;;;;;16.70;8.25;;;7.90;99.90;;;;;;5071835;28;20111;-79
2022/04/29 02:15:16;;;;;;;16.48;8.43;;;7.90;99.90;;;;;;5071171;28;20102;-78
2022/04/29 02:17:42;;;;;;;15.55;8.05;;;7.80;99.90;;;;;;5070788;28;20019;-78
2022/04/29 02:20:08;;;;;;;18.33;8.13;;;7.70;99.90;;;;;;5089489;22;20397;-72
2022/04/29 02:22:34;;;;;;;13.77;7.47;;;7.60;99.90;;;;;;5079062;28;20044;-72
2022/04/29 02:25:00;;;;;;;19.15;7.78;;;7.50;99.90;;;;;;5079208;28;20028;-72
2022/04/29 02:27:26;;;;;;;18.58;8.20;;;7.40;99.90;;;;;;5079350;28;20024;-72
2022/04/29 02:29:51;;;;;;;18.42;7.60;;;7.30;99.90;;;;;;5075232;28;20028;-73
2022/04/29 02:32:18;;;;;;;12.68;6.93;;;7.20;99.90;;;;;;5070302;28;20031;-72
2022/04/29 02:34:44;;;;;;;10.90;7.45;;;7.10;99.90;;;;;;5070379;28;20059;-72
2022/04/29 02:37:09;;;;;;;11.55;6.85;;;7.00;99.90;;;;;;5070080;28;20056;-72
2022/04/29 02:39:35;;;;;;;12.88;7.13;;;6.90;99.90;;;;;;5069943;28;20021;-73
2022/04/29 02:42:02;;;;;;;20.13;9.10;;;6.80;99.90;;;;;;5070578;28;20032;-73
2022/04/29 02:44:28;;;;;;;16.63;8.07;;;6.70;99.90;;;;;;5069987;28;20111;-73
2022/04/29 02:47:09;;;;;;;13.18;6.93;;;6.70;99.90;;;;;;5070098;28;20108;-73
2022/04/29 02:49:39;;;;;;;18.67;7.60;;;6.70;99.90;;;;;;5070007;28;20019;-72
2022/04/29 02:52:06;;;;;;;19.75;7.90;;;6.60;99.90;;;;;;5064213;28;20557;-72
2022/04/29 02:54:32;;;;;;;11.43;7.00;;;6.60;99.90;;;;;;5070500;28;20383;-73
2022/04/29 02:56:59;;;;;;;15.63;8.10;;;6.60;99.90;;;;;;5070192;28;20108;-73
2022/04/29 02:59:24;;;;;;;15.88;8.57;;;6.50;99.90;;;;;;5070615;28;20105;-72
2022/04/29 03:01:50;;;;;;;16.23;8.07;;;6.50;99.90;;;;;;5070136;28;20119;-72
2022/04/29 03:04:16;;;;;;;15.30;7.75;;;6.40;99.90;;;;;;5070255;28;20025;-72
2022/04/29 03:06:41;;;;;;;11.20;7.15;;;6.30;99.90;;;;;;5070131;28;20024;-73
2022/04/29 03:09:07;;;;;;;17.65;7.50;;;6.20;99.90;;;;;;5070048;28;20074;-73
2022/04/29 03:11:33;;;;;;;13.98;7.28;;;6.20;99.90;;;;;;5068823;28;20027;-73
2022/04/29 03:13:59;;;;;;;12.13;7.60;;;6.20;99.90;;;;;;5070665;28;20025;-72
2022/04/29 03:16:25;;;;;;;14.35;8.20;;;6.20;99.90;;;;;;5069835;28;20104;-73
2022/04/29 03:18:51;;;;;;;19.40;8.25;;;6.20;99.90;;;;;;5069206;28;20086;-72
2022/04/29 03:21:18;;;;;;;18.27;8.70;;;6.20;99.90;;;;;;5069489;28;20083;-73
2022/04/29 03:23:46;;;;;;;21.10;9.07;;;6.30;99.90;;;;;;5069706;28;20023;-72
2022/04/29 03:26:11;;;;;;;19.08;8.55;;;6.30;99.90;;;;;;5069990;28;20621;-72
2022/04/29 03:28:37;;;;;;;13.57;7.78;;;6.20;99.90;;;;;;5070355;28;20103;-73
2022/04/29 03:31:03;;;;;;;13.00;7.45;;;6.20;99.90;;;;;;5065189;28;20017;-73
2022/04/29 03:33:28;;;;;;;15.60;7.30;;;6.10;99.90;;;;;;5066471;28;20020;-72
2022/04/29 03:35:54;;;;;;;14.02;8.25;;;6.00;99.90;;;;;;5069539;28;20028;-73
2022/04/29 03:38:20;;;;;;;17.25;7.45;;;5.90;99.90;;;;;;5069485;28;20028;-72
2022/04/29 03:40:46;;;;;;;16.05;7.47;;;5.80;99.90;;;;;;5069089;28;20036;-73
2022/04/29 03:43:12;;;;;;;14.35;8.15;;;5.80;99.90;;;;;;5070021;28;20119;-72
2022/04/29 03:45:38;;;;;;;12.00;6.78;;;5.70;99.90;;;;;;5062766;28;20017;-72
2022/04/29 03:48:05;;;;;;;16.25;8.38;;;5.70;99.90;;;;;;5069605;28;20024;-72
2022/04/29 03:50:31;;;;;;;13.43;6.88;;;5.80;99.90;;;;;;5105293;22;20041;-84
2022/04/29 03:52:59;;;;;;;13.45;7.25;;;5.80;99.90;;;;;;5077597;28;20021;-84
2022/04/29 03:55:27;;;;;;;8.60;5.95;;;5.70;99.90;;;;;;5077847;28;20473;-84
2022/04/29 03:57:53;;;;;;;9.23;5.47;;;5.70;99.90;;;;;;5077649;28;20028;-84
2022/04/29 04:00:20;;;;;;;11.10;5.93;;;5.60;99.90;;;;;;5073888;28;20017;-84
2022/04/29 04:02:46;;;;;;;9.20;5.65;;;5.50;99.90;;;;;;5069440;28;20035;-84
2022/04/29 04:05:12;;;;;;;11.70;6.45;;;5.40;99.90;;;;;;5069382;28;20111;-84
2022/04/29 04:07:38;;;;;;;9.73;5.93;;;5.40;99.90;;;;;;5068427;28;20052;-84
2022/04/29 04:10:05;;;;;;;8.68;5.82;;;5.40;99.90;;;;;;5069320;28;20025;-84
2022/04/29 04:12:41;;;;;;;9.02;5.80;;;5.30;99.90;;;;;;5068126;28;20451;-84
2022/04/29 04:15:08;;;;;;;11.52;5.68;;;5.30;99.90;;;;;;5069616;28;20028;-84
2022/04/29 04:17:33;;;;;;;9.55;5.45;;;5.30;99.90;;;;;;5069498;28;20020;-84
2022/04/29 04:19:59;;;;;;;11.75;6.07;;;5.30;99.90;;;;;;5068711;28;20427;-85
2022/04/29 04:22:27;;;;;;;7.90;5.65;;;5.30;99.90;;;;;;5067923;28;20040;-84
2022/04/29 04:24:53;;;;;;;10.52;5.65;;;5.30;99.90;;;;;;5069806;28;20025;-84
2022/04/29 04:27:19;;;;;;;8.75;5.50;;;5.20;99.90;;;;;;5067949;28;20086;-84
2022/04/29 04:29:45;;;;;;;14.38;6.70;;;5.20;99.90;;;;;;5068541;28;20470;-84
2022/04/29 04:32:10;;;;;;;10.32;5.70;;;5.20;99.90;;;;;;5073084;28;20032;-84
2022/04/29 04:34:52;;;;;;;8.70;6.85;;;5.20;99.90;;;;;;5072067;28;20111;-84
2022/04/29 04:37:22;;;;;;;15.70;7.55;;;5.30;99.90;;;;;;5073074;28;20111;-85
2022/04/29 04:39:48;;;;;;;13.77;7.13;;;5.40;99.90;;;;;;5071444;28;20539;-84
2022/04/29 04:42:14;;;;;;;11.07;7.10;;;5.50;99.90;;;;;;5073430;28;20032;-84
2022/04/29 04:44:40;;;;;;;14.32;7.00;;;5.80;99.90;;;;;;5072574;28;20024;-84
2022/04/29 04:47:06;;;;;;;10.35;7.00;;;5.80;99.90;;;;;;5071549;28;20033;-84
2022/04/29 04:49:33;;;;;;;11.15;6.90;;;5.80;99.90;;;;;;5095088;22;20009;-73
2022/04/29 04:51:59;;;;;;;11.18;6.43;;;6.00;99.90;;;;;;5080254;28;20396;-72
2022/04/29 04:54:25;;;;;;;12.18;6.50;;;6.00;99.90;;;;;;5080918;28;20016;-73
2022/04/29 04:56:50;;;;;;;12.20;6.88;;;6.00;99.90;;;;;;5080720;28;20028;-73
2022/04/29 04:59:17;;;;;;;16.25;6.47;;;6.10;99.90;;;;;;5077350;28;20066;-72
2022/04/29 05:01:42;;;;;;;14.20;7.32;;;6.20;99.90;;;;;;5072308;28;20033;-72
2022/04/29 05:04:09;;;;;;;10.23;7.13;;;6.20;99.90;;;;;;5072843;28;20028;-72
2022/04/29 05:06:36;;;;;;;11.70;6.15;;;6.30;99.90;;;;;;5065431;28;20017;-72
2022/04/29 05:09:03;;;;;;;15.55;6.00;;;6.40;99.90;;;;;;5071093;28;20100;-72
2022/04/29 05:11:29;;;;;;;10.50;6.50;;;6.50;99.90;;;;;;5072115;28;20027;-72
2022/04/29 05:13:55;;;;;;;10.68;6.15;;;6.50;99.90;;;;;;5072480;28;20390;-73
2022/04/29 05:16:20;;;;;;;11.38;5.72;;;6.60;99.90;;;;;;5072067;28;20021;-73
2022/04/29 05:18:46;;;;;;;14.25;6.28;;;6.60;99.90;;;;;;5072233;28;20063;-72
2022/04/29 05:21:12;;;;;;;8.73;5.45;;;6.60;99.90;;;;;;5071930;28;20040;-73
2022/04/29 05:23:37;;;;;;;11.57;6.65;;;6.60;99.90;;;;;;5072073;28;20067;-72
2022/04/29 05:26:04;;;;;;;10.38;6.00;;;6.60;99.90;;;;;;5071899;28;20462;-72
2022/04/29 05:28:29;;;;;;;15.70;6.10;;;6.70;99.90;;;;;;5072378;28;20064;-72
2022/04/29 05:30:57;;;;;;;20.15;9.45;;;6.70;99.90;;;;;;5071877;28;20059;-72
2022/04/29 05:33:23;;;;;;;15.88;8.85;;;6.90;99.90;;;;;;5071981;28;20417;-73
2022/04/29 05:35:49;;;;;;;15.15;7.20;;;7.00;99.90;;;;;;5071967;28;20082;-72
2022/04/29 05:38:15;;;;;;;10.98;7.80;;;7.10;99.90;;;;;;5071482;28;20021;-72
2022/04/29 05:43:30;;;;;;;11.27;5.18;;;7.30;99.90;;;;;;5071418;28;20086;-72
2022/04/29 05:45:55;;;;;;;7.72;5.28;;;7.40;99.90;;;;;;5071713;28;20031;-72
2022/04/29 05:48:21;;;;;;;10.43;5.25;;;7.50;99.90;;;;;;5070961;28;20016;-72
2022/04/29 05:50:48;;;;;;;10.15;5.25;;;7.50;99.90;;;;;;5089889;22;20058;-83
2022/04/29 05:53:15;;;;;;;8.20;4.82;;;7.60;99.90;;;;;;5076545;28;20393;-83
2022/04/29 05:55:42;;;;;;;6.70;4.68;;;7.60;99.90;;;;;;5079782;28;20017;-83
2022/04/29 05:58:08;;;;;;;11.65;5.68;;;7.60;99.90;;;;;;5078785;28;20477;-83
2022/04/29 06:00:34;;;;;;;10.18;5.18;;;7.60;99.90;;;;;;5075281;28;20480;-83
2022/04/29 06:03:00;;;;;;;10.23;5.45;;;7.60;99.90;;;;;;5071751;28;20393;-82
2022/04/29 06:05:26;;;;;;;12.90;4.85;;;7.50;99.90;;;;;;5069732;28;20027;-83
2022/04/29 06:07:52;;;;;;;7.10;4.90;;;7.50;99.90;;;;;;5071655;28;20021;-82
2022/04/29 06:10:19;;;;;;;8.60;5.55;;;7.50;99.90;;;;;;5070853;28;20020;-83
2022/04/29 06:12:46;;;;;;;12.85;5.68;;;7.50;99.90;;;;;;5070723;28;20441;-82
2022/04/29 06:15:19;;;;;;;9.02;5.45;;;7.60;99.90;;;;;;5071425;28;20482;-83
2022/04/29 06:17:45;;;;;;;7.88;4.97;;;7.70;99.90;;;;;;5064707;28;20016;-83
2022/04/29 06:20:12;;;;;;;8.65;5.03;;;7.80;99.90;;;;;;5070327;28;20036;-82
2022/04/29 06:22:45;;;;;;;13.40;5.03;;;7.80;99.90;;;;;;5070669;28;20035;-82
2022/04/29 06:25:11;;;;;;;11.98;5.63;;;7.80;99.90;;;;;;5069904;28;20073;-83
2022/04/29 06:27:36;;;;;;;12.43;5.80;;;7.80;99.90;;;;;;5069173;28;20357;-83
2022/04/29 06:30:03;;;;;;;7.43;5.43;;;7.90;99.90;;;;;;5070099;28;20025;-83
2022/04/29 06:32:28;;;;;;;9.77;5.13;;;7.80;99.90;;;;;;5071321;28;20020;-83
2022/04/29 06:34:54;;;;;;;8.82;4.93;;;7.80;99.90;;;;;;5070455;28;20024;-83
2022/04/29 06:37:21;;;;;;;9.65;5.75;;;7.90;99.90;;;;;;5070503;28;20040;-83
2022/04/29 06:39:47;;;;;;;9.77;5.43;;;7.90;99.90;;;;;;5070866;28;20039;-82
2022/04/29 06:42:13;;;;;;;9.15;5.25;;;7.90;99.90;;;;;;5063821;28;20107;-84
2022/04/29 06:44:38;;;;;;;9.57;6.72;;;7.90;99.90;;;;;;5070839;28;20500;-82
2022/04/29 06:47:04;;;;;;;10.80;5.55;;;7.90;99.90;;;;;;5069418;28;20035;-82
2022/04/29 06:51:58;;;;;;;8.30;5.57;;;8.00;99.90;;;;;;5028687;28;20045;-73
2022/04/29 06:54:24;;;;;;;12.88;5.93;;;8.10;99.90;;;;;;5030655;28;20363;-73
2022/04/29 06:56:50;;;;;;;12.50;6.03;;;8.20;99.90;;;;;;5031150;28;20075;-73
2022/04/29 06:59:16;;;;;;;9.57;6.07;;;8.30;99.90;;;;;;5031172;28;20029;-73
2022/04/29 07:01:42;;;;;;;12.27;6.00;;;8.40;99.90;;;;;;5050324;28;20025;-73
2022/04/29 07:04:07;;;;;;;13.10;6.25;;;8.50;99.90;;;;;;5050950;28;20429;-73
2022/04/29 07:06:33;;;;;;;8.13;5.53;;;8.50;99.90;;;;;;5046217;28;20027;-73
2022/04/29 07:09:01;;;;;;;11.27;6.22;;;8.60;99.90;;;;;;5049809;28;20389;-73
2022/04/29 07:11:29;;;;;;;11.13;5.85;;;8.60;99.90;;;;;;5050676;28;20067;-74
2022/04/29 07:13:55;;;;;;;11.35;5.45;;;8.70;99.90;;;;;;5050355;28;20013;-74
2022/04/29 07:16:21;;;;;;;11.40;5.60;;;8.80;99.90;;;;;;5050507;28;20079;-73
2022/04/29 07:18:47;;;;;;;10.23;5.47;;;8.80;99.90;;;;;;5050766;28;20079;-73
2022/04/29 07:21:12;;;;;;;13.77;6.70;;;8.90;99.90;;;;;;5049342;28;20108;-73
2022/04/29 07:23:38;;;;;;;11.95;5.40;;;9.10;99.90;;;;;;5050680;28;20052;-73
2022/04/29 07:26:04;;;;;;;9.50;5.47;;;9.30;99.90;;;;;;5049243;28;20021;-73
2022/04/29 07:28:30;;;;;;;10.02;5.55;;;9.40;99.90;;;;;;5050338;28;20560;-73
2022/04/29 07:30:57;;;;;;;10.25;5.20;;;9.50;99.90;;;;;;5050240;28;20025;-73
2022/04/29 07:33:26;;;;;;;8.98;5.00;;;9.60;99.90;;;;;;5042634;28;20019;-73
2022/04/29 07:44:06;;;;;;;8.10;4.57;;;9.90;99.90;;;;;;5050294;28;20596;-73
2022/04/29 07:46:32;;;;;;;10.02;4.25;;;9.90;99.90;;;;;;5049718;28;20103;-73
2022/04/29 07:48:58;;;;;;;7.97;3.85;;;10.00;99.90;;;;;;5049170;28;20381;-73
2022/04/29 07:51:24;;;;;;;9.57;4.32;;;10.20;99.90;;;;;;5107326;22;20060;-81
2022/04/29 07:53:49;;;;;;;6.28;3.17;;;10.30;99.90;;;;;;5070417;28;20024;-81
2022/04/29 07:56:15;;;;;;;9.15;3.35;;;10.40;99.90;;;;;;5070663;28;20028;-81
2022/04/29 07:58:41;;;;;;;5.35;3.40;;;10.40;99.90;;;;;;5069967;28;20016;-81
2022/04/29 08:01:09;;;;;;;6.68;3.58;;;10.50;99.90;;;;;;5055411;28;20029;-80
2022/04/29 08:03:36;;;;;;;5.43;2.85;;;10.60;99.90;;;;;;5034429;28;20618;-81
2022/04/29 08:06:04;;;;;;;3.63;2.83;;;10.70;99.90;;;;;;5053022;28;20067;-81
2022/04/29 08:08:30;;;;;;;3.83;3.03;;;10.80;99.90;;;;;;5038979;28;20021;-81
2022/04/29 08:10:55;;;;;;;3.97;2.92;;;10.90;99.90;;;;;;5053451;28;20036;-81
2022/04/29 08:13:22;;;;;;;4.00;2.55;;;11.00;99.90;;;;;;5054004;28;20039;-82
2022/04/29 08:15:49;;;;;;;2.85;2.50;;;11.10;99.90;;;;;;5053900;28;20442;-81
2022/04/29 08:18:16;;;;;;;7.32;2.60;;;11.20;99.90;;;;;;5037128;28;20446;-80
2022/04/29 08:20:43;;;;;;;4.97;2.67;;;11.30;99.90;;;;;;5053773;28;20154;-79
2022/04/29 08:23:09;;;;;;;5.72;2.85;;;11.50;99.90;;;;;;5053729;28;20036;-79
2022/04/29 08:25:35;;;;;;;4.30;1.83;;;11.60;98.90;;;;;;5053859;28;20029;-80
2022/04/29 08:28:02;;;;;;;2.55;2.08;;;11.60;97.20;;;;;;5053445;28;20032;-79
2022/04/29 08:30:30;;;;;;;4.97;2.65;;;11.60;98.80;;;;;;5035665;28;20032;-79
2022/04/29 08:32:57;;;;;;;4.63;2.63;;;11.60;96.00;;;;;;5053698;28;20061;-79
2022/04/29 08:35:24;;;;;;;4.78;2.00;;;11.70;97.40;;;;;;5035799;28;20021;-79
2022/04/29 08:37:50;;;;;;;5.13;2.67;;;11.80;95.40;;;;;;5053218;28;20025;-80
2022/04/29 08:40:16;;;;;;;4.80;2.10;;;12.00;97.90;;;;;;5053702;28;20025;-79
2022/04/29 08:42:42;;;;;;;5.35;2.33;;;12.10;97.80;;;;;;5037212;28;20040;-79
2022/04/29 08:45:16;;;;;;;5.68;1.92;;;12.50;93.10;;;;;;5039964;28;20052;-79
2022/04/29 08:47:44;;;;;;;6.70;2.80;;;12.80;90.30;;;;;;5052471;28;20112;-79
2022/04/29 08:50:19;;;;;;;5.45;2.00;;;13.20;87.90;;;;;;5071861;22;20048;-72
2022/04/29 08:52:46;;;;;;;3.33;1.58;;;13.70;81.80;;;;;;5093496;28;20020;-72
2022/04/29 09:00:42;;;;;;;2.08;1.63;;;13.40;78.90;;;;;;5085924;28;20081;-72
2022/04/29 09:03:13;;;;;;;6.25;2.00;;;13.20;75.40;;;;;;5092238;28;20257;-73
2022/04/29 09:05:39;;;;;;;4.75;1.73;;;12.90;76.10;;;;;;5085096;28;20024;-72
2022/04/29 09:08:05;;;;;;;2.30;1.70;;;12.80;77.00;;;;;;5090335;28;20029;-73
2022/04/29 09:10:36;;;;;;;5.20;2.03;;;13.00;77.20;;;;;;5087868;28;20017;-73
2022/04/29 09:13:24;;;;;;;3.38;2.10;;;13.40;81.10;;;;;;5080124;28;20028;-72
2022/04/29 09:16:04;;;;;;;4.80;2.13;;;14.50;71.70;;;;;;5081043;28;20020;-73
2022/04/29 09:18:37;;;;;;;1.95;1.58;;;14.90;68.70;;;;;;5080493;28;20019;-73
2022/04/29 09:21:05;;;;;;;3.25;2.40;;;14.50;72.30;;;;;;5085419;28;20105;-73
2022/04/29 09:23:31;;;;;;;1.50;1.35;;;14.30;69.30;;;;;;5084936;28;20042;-73
2022/04/29 09:26:01;;;;;;;5.35;1.45;;;14.90;70.60;;;;;;5085215;28;20093;-73
2022/04/29 09:28:27;;;;;;;5.43;1.50;;;15.60;65.70;;;;;;5079373;28;20016;-73
2022/04/29 09:30:56;;;;;;;3.53;1.58;;;16.90;64.00;;;;;;5091586;28;20016;-73
2022/04/29 09:33:24;;;;;;;2.85;1.40;;;17.20;61.70;;;;;;5083641;28;20024;-73
2022/04/29 09:35:51;;;;;;;4.13;1.45;;;17.80;55.80;;;;;;5092384;28;20034;-73
2022/04/29 09:41:03;;;;;;;1.45;1.23;;;20.00;48.70;;;;;;5084554;28;20067;-73
2022/04/29 09:43:44;;;;;;;1.45;1.27;;;20.10;45.40;;;;;;5091363;28;20031;-73
2022/04/29 09:46:20;;;;;;;2.08;1.17;;;20.40;46.00;;;;;;5091599;28;20069;-73
2022/04/29 09:48:57;;;;;;;3.20;1.20;;;20.60;43.40;;;;;;5090781;28;20031;-73
2022/04/29 09:51:49;;;;;;;3.28;1.52;;;20.30;44.30;;;;;;5101370;22;20036;-80
2022/04/29 09:54:20;;;;;;;2.08;1.13;;;20.50;43.40;;;;;;5034446;28;20017;-81
2022/04/29 09:57:00;;;;;;;2.00;1.08;;;22.10;42.20;;;;;;5052796;28;20017;-80
2022/04/29 09:59:28;;;;;;;1.13;0.98;;;23.10;44.80;;;;;;5052425;28;20017;-80
2022/04/29 10:01:54;;;;;;;2.78;1.20;;;24.40;41.00;;;;;;5044179;28;20025;-81
2022/04/29 10:04:21;;;;;;;3.20;1.17;;;24.80;35.70;;;;;;5044145;28;20059;-80
2022/04/29 10:06:49;;;;;;;4.97;1.58;;;23.10;38.30;;;;;;5051460;28;20429;-80
2022/04/29 10:09:16;;;;;;;3.67;1.63;;;21.80;37.70;;;;;;5051338;28;20017;-81
2022/04/29 10:11:44;;;;;;;2.85;1.40;;;22.60;38.40;;;;;;5018721;28;20034;-80
2022/04/29 10:14:14;;;;;;;2.40;1.40;;;23.90;40.90;;;;;;5051105;28;20025;-81
2022/04/29 10:16:44;;;;;;;1.90;1.00;;;25.50;34.60;;;;;;5045494;28;20482;-81
2022/04/29 10:22:00;;;;;;;2.03;1.05;;;24.90;32.90;;;;;;5050803;28;20055;-80
2022/04/29 10:24:29;;;;;;;2.25;1.02;;;25.20;34.50;;;;;;5050805;28;20037;-81
2022/04/29 10:26:55;;;;;;;0.80;0.80;;;25.10;36.40;;;;;;5043381;28;20025;-80
2022/04/29 10:29:22;;;;;;;3.80;1.00;;;25.50;32.10;;;;;;5039164;28;20017;-81
2022/04/29 10:32:07;;;;;;;2.10;1.08;;;25.70;32.30;;;;;;5042719;28;20037;-81
2022/04/29 10:34:34;;;;;;;3.67;1.08;;;26.40;31.80;;;;;;5043277;28;20021;-81
2022/04/29 10:37:01;;;;;;;1.75;1.08;;;25.30;32.00;;;;;;5043314;28;20052;-81
2022/04/29 10:39:27;;;;;;;2.75;1.20;;;23.60;34.20;;;;;;5051024;28;20016;-81
2022/04/29 10:42:06;;;;;;;2.80;1.13;;;23.80;33.40;;;;;;5043510;28;20750;-80
2022/04/29 10:44:31;;;;;;;2.78;1.00;;;25.00;34.00;;;;;;5012581;28;20410;-80
2022/04/29 10:47:26;;;;;;;2.17;0.98;;;24.80;32.80;;;;;;5036622;28;20501;-81
2022/04/29 10:49:52;;;;;;;2.30;1.10;;;25.40;33.70;;;;;;5065830;22;20076;-82
2022/04/29 10:52:25;;;;;;;2.60;1.40;;;27.30;32.60;;;;;;5041595;28;20128;-80
2022/04/29 10:54:56;;;;;;;2.38;1.17;;;26.90;32.60;;;;;;5031457;28;20402;-81
2022/04/29 10:57:44;;;;;;;3.80;1.50;;;25.00;32.20;;;;;;5066535;28;20103;-80
2022/04/29 11:00:13;;;;;;;1.98;1.40;;;23.70;32.70;;;;;;5032298;28;20104;-81
2022/04/29 11:02:39;;;;;;;3.25;1.20;;;23.10;36.50;;;;;;5032179;28;20048;-80
2022/04/29 11:05:07;;;;;;;1.67;1.27;;;22.90;33.60;;;;;;5031863;28;20317;-81
2022/04/29 11:07:35;;;;;;;1.20;1.20;;;23.70;34.10;;;;;;5032327;28;20099;-81
2022/04/29 11:10:02;;;;;;;6.40;2.45;;;24.70;32.40;;;;;;5030701;28;20093;-81
2022/04/29 11:12:32;;;;;;;2.17;1.27;;;24.80;35.40;;;;;;5032349;28;20022;-81
2022/04/29 11:15:05;;;;;;;3.17;1.48;;;25.90;34.30;;;;;;5032016;28;20022;-82
2022/04/29 11:17:35;;;;;;;4.47;1.40;;;26.20;30.80;;;;;;5025605;28;20052;-81
2022/04/29 11:20:13;;;;;;;2.42;1.08;;;26.20;32.70;;;;;;5031663;28;20375;-80
2022/04/29 11:25:24;;;;;;;1.10;0.95;;;25.70;31.50;;;;;;5032313;28;20390;-82
2022/04/29 11:27:51;;;;;;;1.70;1.60;;;26.10;29.90;;;;;;5032046;28;20470;-82
2022/04/29 11:30:18;;;;;;;3.65;1.45;;;26.00;30.80;;;;;;5030628;28;20021;-81
2022/04/29 11:32:44;;;;;;;5.40;1.45;;;25.90;32.70;;;;;;5031852;28;20104;-79
2022/04/29 11:35:10;;;;;;;2.95;1.30;;;24.40;31.40;;;;;;5029874;28;20060;-81
2022/04/29 11:37:36;;;;;;;5.18;1.30;;;24.70;33.40;;;;;;5030452;28;20386;-81
2022/04/29 11:40:07;;;;;;;4.88;1.15;;;25.50;33.10;;;;;;5031186;28;20096;-82
2022/04/29 11:42:33;;;;;;;2.40;1.10;;;26.20;30.00;;;;;;5030249;28;20091;-82
2022/04/29 11:45:09;;;;;;;3.83;1.15;;;25.50;31.10;;;;;;5031478;28;20529;-81
2022/04/29 11:47:36;;;;;;;2.83;1.20;;;26.00;34.80;;;;;;5025617;28;20022;-81
2022/04/29 11:50:03;;;;;;;4.65;1.45;;;26.80;32.00;;;;;;5059003;23;19998;-82
2022/04/29 11:52:34;;;;;;;1.13;0.85;;;27.90;30.30;;;;;;5037018;28;20045;-83
2022/04/29 11:55:03;;;;;;;3.95;1.10;;;27.90;30.60;;;;;;5031753;28;20030;-83
2022/04/29 11:57:34;;;;;;;1.92;0.98;;;28.20;26.80;;;;;;5031720;28;20028;-81
2022/04/29 12:00:03;;;;;;;1.35;0.85;;;29.10;28.70;;;;;;5064682;28;20428;-80
2022/04/29 12:02:29;;;;;;;3.92;1.02;;;29.60;28.40;;;;;;5033649;28;20065;-81
2022/04/29 12:04:59;;;;;;;2.05;0.98;;;30.20;26.30;;;;;;5030854;28;20057;-80
2022/04/29 12:07:29;;;;;;;2.40;1.55;;;28.90;27.80;;;;;;5024250;28;20527;-81
2022/04/29 12:09:56;;;;;;;1.60;1.38;;;27.10;28.50;;;;;;5031156;28;20462;-80
2022/04/29 12:12:29;;;;;;;2.65;1.30;;;26.50;31.40;;;;;;5029942;28;20025;-79
2022/04/29 12:14:56;;;;;;;4.05;1.80;;;25.50;30.80;;;;;;5031387;28;20132;-81
2022/04/29 12:17:36;;;;;;;4.20;1.48;;;25.80;31.70;;;;;;5038128;28;20022;-81
2022/04/29 12:20:04;;;;;;;4.13;1.57;;;26.80;28.60;;;;;;5032107;28;20048;-81
2022/04/29 12:22:34;;;;;;;3.05;1.20;;;27.80;28.60;;;;;;5033584;28;20033;-80
2022/04/29 12:25:20;;;;;;;2.83;1.20;;;28.10;31.90;;;;;;5030280;28;20411;-81
2022/04/29 12:27:46;;;;;;;3.03;1.40;;;29.20;27.60;;;;;;5030441;28;20067;-81
2022/04/29 12:36:10;;;;;;;1.52;1.20;;;28.00;27.60;;;;;;5018081;28;20064;-81
2022/04/29 12:38:37;;;;;;;3.28;1.58;;;29.00;29.90;;;;;;5028390;28;20100;-80
2022/04/29 12:41:27;;;;;;;1.45;1.13;;;29.70;26.80;;;;;;5021473;28;20544;-81
2022/04/29 12:44:05;;;;;;;1.63;1.15;;;30.10;28.00;;;;;;5024397;28;20486;-80
2022/04/29 12:46:31;;;;;;;2.90;1.42;;;31.00;27.00;;;;;;5037588;28;20615;-80
2022/04/29 12:48:57;;;;;;;1.65;1.13;;;32.20;26.40;;;;;;5030577;28;20034;-80
2022/04/29 12:51:24;;;;;;;1.60;1.33;;;32.00;24.90;;;;;;5086838;23;20043;-72
2022/04/29 12:53:51;;;;;;;5.45;1.45;;;33.00;26.10;;;;;;5094103;28;20027;-74
2022/04/29 12:56:30;;;;;;;4.93;1.20;;;31.80;25.00;;;;;;5093614;28;20081;-72
2022/04/29 12:58:57;;;;;;;2.17;1.55;;;31.40;24.90;;;;;;5093339;28;20020;-72
2022/04/29 13:01:23;;;;;;;2.97;1.30;;;31.00;25.20;;;;;;5078110;28;20032;-72
2022/04/29 13:03:54;;;;;;;3.20;1.20;;;31.80;24.10;;;;;;5072941;28;20070;-71
2022/04/29 13:06:21;;;;;;;1.90;1.30;;;30.10;25.40;;;;;;5072804;28;20024;-73
2022/04/29 13:08:54;;;;;;;2.25;1.23;;;29.90;27.50;;;;;;5072534;28;20017;-72
2022/04/29 13:11:20;;;;;;;2.47;1.48;;;30.30;27.00;;;;;;5072565;28;20019;-73
2022/04/29 13:13:47;;;;;;;3.22;1.52;;;30.00;26.20;;;;;;5072829;28;20550;-73
2022/04/29 13:16:13;;;;;;;4.22;1.50;;;30.20;29.00;;;;;;5073088;28;20546;-74
2022/04/29 13:18:39;;;;;;;1.77;1.30;;;30.20;25.60;;;;;;5072416;28;20047;-73
2022/04/29 13:21:08;;;;;;;3.40;1.85;;;28.30;29.20;;;;;;5072075;28;20504;-73
2022/04/29 13:23:38;;;;;;;3.92;2.00;;;27.00;28.20;;;;;;5072463;28;20060;-74